sensor_id;sensor_type;location;lat;lon;timestamp;pressure;altitude;pressure_sealevel;temperature;humidity
7433;BME280;32233;49.500;7.764;2023-03-04T00:00:37;99206.63;;;-3.57;100.00
7433;BME280;32233;49.500;7.764;2023-03-04T00:03:08;99207.03;;;-3.21;100.00
7433;BME280;32233;49.500;7.764;2023-03-04T00:05:40;99204.81;;;-3.28;100.00
7433;BME280;32233;49.500;7.764;2023-03-04T00:08:07;99202.81;;;-3.22;100.00
7433;BME280;32233;49.500;7.764;2023-03-04T00:10:33;99218.56;;;-3.13;100.00
7433;BME280;32233;49.500;7.764;2023-03-04T00:13:00;99208.19;;;-3.54;100.00
7433;BME280;32233;49.500;7.764;2023-03-04T00:15:26;99212.19;;;-3.63;100.00
7433;BME280;32233;49.500;7.764;2023-03-04T00:17:53;99200.91;;;-3.62;100.00
7433;BME280;32233;49.500;7.764;2023-03-04T00:20:19;99215.75;;;-3.65;100.00
7433;BME280;32233;49.500;7.764;2023-03-04T00:22:46;99208.84;;;-3.79;100.00
7433;BME280;32233;49.500;7.764;2023-03-04T00:25:13;99207.16;;;-3.52;100.00
7433;BME280;32233;49.500;7.764;2023-03-04T00:27:40;99202.44;;;-3.31;100.00
7433;BME280;32233;49.500;7.764;2023-03-04T00:30:08;99201.63;;;-3.45;100.00
7433;BME280;32233;49.500;7.764;2023-03-04T00:32:34;99208.84;;;-3.65;100.00
7433;BME280;32233;49.500;7.764;2023-03-04T00:35:02;99208.56;;;-3.75;100.00
7433;BME280;32233;49.500;7.764;2023-03-04T00:37:29;99202.56;;;-3.89;100.00
7433;BME280;32233;49.500;7.764;2023-03-04T00:39:55;99205.91;;;-3.87;100.00
7433;BME280;32233;49.500;7.764;2023-03-04T00:42:22;99206.91;;;-3.76;100.00
7433;BME280;32233;49.500;7.764;2023-03-04T00:44:48;99209.38;;;-3.88;100.00
7433;BME280;32233;49.500;7.764;2023-03-04T00:47:14;99203.59;;;-3.92;100.00
7433;BME280;32233;49.500;7.764;2023-03-04T00:49:41;99204.78;;;-3.97;100.00
7433;BME280;32233;49.500;7.764;2023-03-04T00:52:08;99200.88;;;-4.05;100.00
7433;BME280;32233;49.500;7.764;2023-03-04T00:54:34;99195.34;;;-4.13;100.00
7433;BME280;32233;49.500;7.764;2023-03-04T00:57:01;99203.66;;;-4.08;100.00
7433;BME280;32233;49.500;7.764;2023-03-04T00:59:27;99201.53;;;-4.01;100.00
7433;BME280;32233;49.500;7.764;2023-03-04T01:01:54;99205.69;;;-3.99;100.00
7433;BME280;32233;49.500;7.764;2023-03-04T01:04:20;99202.56;;;-4.04;100.00
7433;BME280;32233;49.500;7.764;2023-03-04T01:06:47;99201.91;;;-4.07;100.00
7433;BME280;32233;49.500;7.764;2023-03-04T01:09:13;99203.28;;;-4.02;100.00
7433;BME280;32233;49.500;7.764;2023-03-04T01:11:40;99201.16;;;-4.09;100.00
7433;BME280;32233;49.500;7.764;2023-03-04T01:14:06;99191.94;;;-4.13;100.00
7433;BME280;32233;49.500;7.764;2023-03-04T01:16:33;99191.22;;;-4.15;100.00
7433;BME280;32233;49.500;7.764;2023-03-04T01:19:00;99197.84;;;-4.11;100.00
7433;BME280;32233;49.500;7.764;2023-03-04T01:21:26;99189.56;;;-4.16;100.00
7433;BME280;32233;49.500;7.764;2023-03-04T01:23:54;99185.94;;;-4.14;100.00
7433;BME280;32233;49.500;7.764;2023-03-04T01:26:20;99187.16;;;-4.19;100.00
7433;BME280;32233;49.500;7.764;2023-03-04T01:28:47;99184.56;;;-4.19;100.00
7433;BME280;32233;49.500;7.764;2023-03-04T01:31:13;99186.03;;;-4.15;100.00
7433;BME280;32233;49.500;7.764;2023-03-04T01:33:40;99183.53;;;-4.17;100.00
7433;BME280;32233;49.500;7.764;2023-03-04T01:36:08;99178.59;;;-3.91;100.00
7433;BME280;32233;49.500;7.764;2023-03-04T01:38:35;99174.34;;;-3.78;100.00
7433;BME280;32233;49.500;7.764;2023-03-04T01:41:01;99167.69;;;-4.11;100.00
7433;BME280;32233;49.500;7.764;2023-03-04T01:43:29;99171.19;;;-4.26;100.00
7433;BME280;32233;49.500;7.764;2023-03-04T01:45:57;99170.41;;;-4.42;100.00
7433;BME280;32233;49.500;7.764;2023-03-04T01:48:26;99163.31;;;-4.53;100.00
7433;BME280;32233;49.500;7.764;2023-03-04T01:50:53;99154.28;;;-4.46;100.00
7433;BME280;32233;49.500;7.764;2023-03-04T01:53:23;99150.03;;;-4.47;100.00
7433;BME280;32233;49.500;7.764;2023-03-04T01:55:56;99151.50;;;-4.43;100.00
7433;BME280;32233;49.500;7.764;2023-03-04T01:58:29;99148.88;;;-4.27;100.00
7433;BME280;32233;49.500;7.764;2023-03-04T02:00:56;99153.13;;;-3.97;100.00
7433;BME280;32233;49.500;7.764;2023-03-04T02:03:23;99148.03;;;-4.13;100.00
7433;BME280;32233;49.500;7.764;2023-03-04T02:05:51;99152.75;;;-4.06;100.00
7433;BME280;32233;49.500;7.764;2023-03-04T02:08:21;99144.25;;;-3.93;100.00
7433;BME280;32233;49.500;7.764;2023-03-04T02:10:48;99143.06;;;-3.88;100.00
7433;BME280;32233;49.500;7.764;2023-03-04T02:13:16;99136.22;;;-3.89;100.00
7433;BME280;32233;49.500;7.764;2023-03-04T02:15:44;99141.84;;;-3.96;100.00
7433;BME280;32233;49.500;7.764;2023-03-04T02:18:15;99142.97;;;-4.01;100.00
7433;BME280;32233;49.500;7.764;2023-03-04T02:21:00;99136.53;;;-4.08;100.00
7433;BME280;32233;49.500;7.764;2023-03-04T02:23:50;99134.13;;;-4.11;100.00
7433;BME280;32233;49.500;7.764;2023-03-04T02:26:22;99138.19;;;-4.07;100.00
7433;BME280;32233;49.500;7.764;2023-03-04T02:28:52;99139.09;;;-4.22;100.00
7433;BME280;32233;49.500;7.764;2023-03-04T02:31:32;99133.09;;;-4.22;100.00
7433;BME280;32233;49.500;7.764;2023-03-04T02:34:02;99126.19;;;-4.22;100.00
7433;BME280;32233;49.500;7.764;2023-03-04T02:36:30;99126.38;;;-4.39;100.00
7433;BME280;32233;49.500;7.764;2023-03-04T02:39:13;99125.16;;;-4.48;100.00
7433;BME280;32233;49.500;7.764;2023-03-04T02:41:41;99119.72;;;-4.43;100.00
7433;BME280;32233;49.500;7.764;2023-03-04T02:44:20;99125.94;;;-4.62;100.00
7433;BME280;32233;49.500;7.764;2023-03-04T02:46:48;99127.41;;;-4.58;100.00
7433;BME280;32233;49.500;7.764;2023-03-04T02:49:16;99124.66;;;-4.69;100.00
7433;BME280;32233;49.500;7.764;2023-03-04T02:51:43;99123.34;;;-4.76;100.00
7433;BME280;32233;49.500;7.764;2023-03-04T02:54:18;99125.25;;;-4.94;100.00
7433;BME280;32233;49.500;7.764;2023-03-04T02:56:50;99124.84;;;-5.02;100.00
7433;BME280;32233;49.500;7.764;2023-03-04T02:59:18;99128.91;;;-4.98;100.00
7433;BME280;32233;49.500;7.764;2023-03-04T03:01:45;99130.00;;;-5.02;100.00
7433;BME280;32233;49.500;7.764;2023-03-04T03:04:12;99123.00;;;-5.00;100.00
7433;BME280;32233;49.500;7.764;2023-03-04T03:06:40;99123.09;;;-5.02;100.00
7433;BME280;32233;49.500;7.764;2023-03-04T03:09:07;99118.63;;;-4.84;100.00
7433;BME280;32233;49.500;7.764;2023-03-04T03:11:34;99119.59;;;-5.01;100.00
7433;BME280;32233;49.500;7.764;2023-03-04T03:14:02;99120.13;;;-5.10;100.00
7433;BME280;32233;49.500;7.764;2023-03-04T03:16:29;99114.53;;;-5.02;100.00
7433;BME280;32233;49.500;7.764;2023-03-04T03:18:56;99119.50;;;-5.15;100.00
7433;BME280;32233;49.500;7.764;2023-03-04T03:21:23;99114.13;;;-5.10;100.00
7433;BME280;32233;49.500;7.764;2023-03-04T03:23:50;99119.19;;;-5.09;100.00
7433;BME280;32233;49.500;7.764;2023-03-04T03:26:17;99117.28;;;-5.05;100.00
7433;BME280;32233;49.500;7.764;2023-03-04T03:28:44;99116.44;;;-5.06;100.00
7433;BME280;32233;49.500;7.764;2023-03-04T03:31:10;99118.63;;;-5.14;100.00
7433;BME280;32233;49.500;7.764;2023-03-04T03:33:37;99117.34;;;-5.07;100.00
7433;BME280;32233;49.500;7.764;2023-03-04T03:36:05;99124.94;;;-5.19;100.00
7433;BME280;32233;49.500;7.764;2023-03-04T03:38:31;99125.28;;;-5.26;100.00
7433;BME280;32233;49.500;7.764;2023-03-04T03:40:58;99121.53;;;-5.20;100.00
7433;BME280;32233;49.500;7.764;2023-03-04T03:43:24;99127.03;;;-5.26;100.00
7433;BME280;32233;49.500;7.764;2023-03-04T03:45:51;99124.53;;;-5.28;100.00
7433;BME280;32233;49.500;7.764;2023-03-04T03:48:17;99125.97;;;-5.38;100.00
7433;BME280;32233;49.500;7.764;2023-03-04T03:50:44;99128.97;;;-5.30;100.00
7433;BME280;32233;49.500;7.764;2023-03-04T03:53:11;99128.13;;;-5.30;100.00
7433;BME280;32233;49.500;7.764;2023-03-04T03:55:37;99135.25;;;-5.35;100.00
7433;BME280;32233;49.500;7.764;2023-03-04T03:58:04;99130.47;;;-5.41;100.00
7433;BME280;32233;49.500;7.764;2023-03-04T04:00:31;99126.28;;;-5.44;100.00
7433;BME280;32233;49.500;7.764;2023-03-04T04:02:59;99128.44;;;-5.36;100.00
7433;BME280;32233;49.500;7.764;2023-03-04T04:05:25;99130.78;;;-5.32;100.00
7433;BME280;32233;49.500;7.764;2023-03-04T04:07:52;99128.19;;;-5.16;100.00
7433;BME280;32233;49.500;7.764;2023-03-04T04:10:19;99119.28;;;-5.10;100.00
7433;BME280;32233;49.500;7.764;2023-03-04T04:12:46;99119.69;;;-5.02;100.00
7433;BME280;32233;49.500;7.764;2023-03-04T04:15:13;99127.94;;;-5.27;100.00
7433;BME280;32233;49.500;7.764;2023-03-04T04:17:39;99123.69;;;-5.12;100.00
7433;BME280;32233;49.500;7.764;2023-03-04T04:20:08;99130.56;;;-5.43;100.00
7433;BME280;32233;49.500;7.764;2023-03-04T04:22:34;99126.81;;;-5.53;100.00
7433;BME280;32233;49.500;7.764;2023-03-04T04:25:01;99130.47;;;-5.57;100.00
7433;BME280;32233;49.500;7.764;2023-03-04T04:27:27;99127.47;;;-5.65;100.00
7433;BME280;32233;49.500;7.764;2023-03-04T04:29:54;99128.44;;;-5.68;100.00
7433;BME280;32233;49.500;7.764;2023-03-04T04:32:20;99120.00;;;-5.70;100.00
7433;BME280;32233;49.500;7.764;2023-03-04T04:34:47;99124.31;;;-5.70;100.00
7433;BME280;32233;49.500;7.764;2023-03-04T04:37:13;99119.16;;;-5.70;100.00
7433;BME280;32233;49.500;7.764;2023-03-04T04:39:40;99129.13;;;-5.64;100.00
7433;BME280;32233;49.500;7.764;2023-03-04T04:42:09;99121.91;;;-5.58;100.00
7433;BME280;32233;49.500;7.764;2023-03-04T04:44:36;99124.38;;;-5.56;100.00
7433;BME280;32233;49.500;7.764;2023-03-04T04:47:05;99127.22;;;-5.61;100.00
7433;BME280;32233;49.500;7.764;2023-03-04T04:49:32;99128.66;;;-5.55;100.00
7433;BME280;32233;49.500;7.764;2023-03-04T04:51:59;99123.41;;;-5.54;100.00
7433;BME280;32233;49.500;7.764;2023-03-04T04:54:25;99125.72;;;-5.65;100.00
7433;BME280;32233;49.500;7.764;2023-03-04T04:56:52;99128.03;;;-5.76;100.00
7433;BME280;32233;49.500;7.764;2023-03-04T04:59:18;99120.97;;;-5.57;100.00
7433;BME280;32233;49.500;7.764;2023-03-04T05:01:45;99135.03;;;-5.62;100.00
7433;BME280;32233;49.500;7.764;2023-03-04T05:04:12;99126.91;;;-5.55;100.00
7433;BME280;32233;49.500;7.764;2023-03-04T05:06:38;99130.47;;;-5.57;100.00
7433;BME280;32233;49.500;7.764;2023-03-04T05:09:05;99132.38;;;-5.45;100.00
7433;BME280;32233;49.500;7.764;2023-03-04T05:11:32;99135.91;;;-5.16;100.00
7433;BME280;32233;49.500;7.764;2023-03-04T05:13:59;99130.59;;;-4.83;100.00
7433;BME280;32233;49.500;7.764;2023-03-04T05:16:26;99130.16;;;-4.75;100.00
7433;BME280;32233;49.500;7.764;2023-03-04T05:18:53;99127.13;;;-4.82;100.00
7433;BME280;32233;49.500;7.764;2023-03-04T05:21:19;99128.44;;;-4.90;100.00
7433;BME280;32233;49.500;7.764;2023-03-04T05:23:46;99129.22;;;-4.88;100.00
7433;BME280;32233;49.500;7.764;2023-03-04T05:26:15;99127.63;;;-4.91;100.00
7433;BME280;32233;49.500;7.764;2023-03-04T05:28:42;99123.56;;;-4.51;100.00
7433;BME280;32233;49.500;7.764;2023-03-04T05:31:09;99127.75;;;-4.48;100.00
7433;BME280;32233;49.500;7.764;2023-03-04T05:33:37;99133.19;;;-4.38;100.00
7433;BME280;32233;49.500;7.764;2023-03-04T05:36:04;99129.59;;;-4.36;100.00
7433;BME280;32233;49.500;7.764;2023-03-04T05:38:32;99127.75;;;-4.19;100.00
7433;BME280;32233;49.500;7.764;2023-03-04T05:41:02;99135.13;;;-4.28;100.00
7433;BME280;32233;49.500;7.764;2023-03-04T05:43:29;99132.91;;;-4.34;100.00
7433;BME280;32233;49.500;7.764;2023-03-04T05:45:56;99134.22;;;-4.27;100.00
7433;BME280;32233;49.500;7.764;2023-03-04T05:48:22;99133.66;;;-3.89;100.00
7433;BME280;32233;49.500;7.764;2023-03-04T05:50:56;99128.13;;;-3.97;100.00
7433;BME280;32233;49.500;7.764;2023-03-04T05:53:23;99127.97;;;-4.08;100.00
7433;BME280;32233;49.500;7.764;2023-03-04T05:55:50;99122.88;;;-3.95;100.00
7433;BME280;32233;49.500;7.764;2023-03-04T05:58:17;99127.22;;;-4.10;100.00
7433;BME280;32233;49.500;7.764;2023-03-04T06:00:44;99127.22;;;-3.96;100.00
7433;BME280;32233;49.500;7.764;2023-03-04T06:03:15;99135.78;;;-3.95;100.00
7433;BME280;32233;49.500;7.764;2023-03-04T06:05:42;99140.09;;;-3.82;100.00
7433;BME280;32233;49.500;7.764;2023-03-04T06:08:10;99136.41;;;-3.63;100.00
7433;BME280;32233;49.500;7.764;2023-03-04T06:10:38;99135.13;;;-3.85;100.00
7433;BME280;32233;49.500;7.764;2023-03-04T06:13:05;99137.94;;;-3.61;100.00
7433;BME280;32233;49.500;7.764;2023-03-04T06:15:32;99136.88;;;-3.85;100.00
7433;BME280;32233;49.500;7.764;2023-03-04T06:17:58;99135.41;;;-3.89;100.00
7433;BME280;32233;49.500;7.764;2023-03-04T06:20:25;99141.00;;;-3.68;100.00
7433;BME280;32233;49.500;7.764;2023-03-04T06:22:51;99141.66;;;-3.65;100.00
7433;BME280;32233;49.500;7.764;2023-03-04T06:25:18;99142.84;;;-3.56;100.00
7433;BME280;32233;49.500;7.764;2023-03-04T06:27:45;99151.06;;;-3.64;100.00
7433;BME280;32233;49.500;7.764;2023-03-04T06:30:12;99150.78;;;-3.59;100.00
7433;BME280;32233;49.500;7.764;2023-03-04T06:32:39;99150.78;;;-3.59;100.00
7433;BME280;32233;49.500;7.764;2023-03-04T06:35:05;99148.81;;;-3.56;100.00
7433;BME280;32233;49.500;7.764;2023-03-04T06:37:32;99153.00;;;-3.53;100.00
7433;BME280;32233;49.500;7.764;2023-03-04T06:39:58;99148.81;;;-3.56;100.00
7433;BME280;32233;49.500;7.764;2023-03-04T06:42:25;99153.69;;;-3.37;100.00
7433;BME280;32233;49.500;7.764;2023-03-04T06:44:51;99159.28;;;-3.57;100.00
7433;BME280;32233;49.500;7.764;2023-03-04T06:47:18;99167.28;;;-3.47;100.00
7433;BME280;32233;49.500;7.764;2023-03-04T06:49:44;99175.53;;;-3.14;100.00
7433;BME280;32233;49.500;7.764;2023-03-04T06:52:11;99169.56;;;-3.02;100.00
7433;BME280;32233;49.500;7.764;2023-03-04T06:54:38;99168.34;;;-2.96;100.00
7433;BME280;32233;49.500;7.764;2023-03-04T06:57:05;99175.72;;;-3.17;100.00
7433;BME280;32233;49.500;7.764;2023-03-04T06:59:33;99172.88;;;-3.27;100.00
7433;BME280;32233;49.500;7.764;2023-03-04T07:01:59;99175.06;;;-3.20;100.00
7433;BME280;32233;49.500;7.764;2023-03-04T07:04:26;99174.94;;;-3.05;100.00
7433;BME280;32233;49.500;7.764;2023-03-04T07:06:52;99175.28;;;-2.69;100.00
7433;BME280;32233;49.500;7.764;2023-03-04T07:09:19;99177.25;;;-2.60;100.00
7433;BME280;32233;49.500;7.764;2023-03-04T07:11:45;99178.63;;;-2.42;100.00
7433;BME280;32233;49.500;7.764;2023-03-04T07:14:12;99184.75;;;-2.70;100.00
7433;BME280;32233;49.500;7.764;2023-03-04T07:16:39;99189.34;;;-2.73;100.00
7433;BME280;32233;49.500;7.764;2023-03-04T07:19:05;99189.09;;;-2.18;100.00
7433;BME280;32233;49.500;7.764;2023-03-04T07:21:32;99192.31;;;-2.40;100.00
7433;BME280;32233;49.500;7.764;2023-03-04T07:23:59;99204.25;;;-2.64;100.00
7433;BME280;32233;49.500;7.764;2023-03-04T07:26:25;99202.69;;;-2.67;100.00
7433;BME280;32233;49.500;7.764;2023-03-04T07:28:52;99203.47;;;-2.52;100.00
7433;BME280;32233;49.500;7.764;2023-03-04T07:31:23;99204.75;;;-2.19;100.00
7433;BME280;32233;49.500;7.764;2023-03-04T07:33:50;99208.09;;;-1.92;99.88
7433;BME280;32233;49.500;7.764;2023-03-04T07:36:17;99205.28;;;-2.02;100.00
7433;BME280;32233;49.500;7.764;2023-03-04T07:38:46;99212.13;;;-2.01;100.00
7433;BME280;32233;49.500;7.764;2023-03-04T07:41:14;99207.69;;;-1.98;100.00
7433;BME280;32233;49.500;7.764;2023-03-04T07:43:41;99206.72;;;-1.72;100.00
7433;BME280;32233;49.500;7.764;2023-03-04T07:46:08;99212.03;;;-2.25;100.00
7433;BME280;32233;49.500;7.764;2023-03-04T07:48:35;99211.59;;;-2.18;100.00
7433;BME280;32233;49.500;7.764;2023-03-04T07:51:12;99208.94;;;-2.04;100.00
7433;BME280;32233;49.500;7.764;2023-03-04T07:53:40;99215.25;;;-1.83;100.00
7433;BME280;32233;49.500;7.764;2023-03-04T07:56:10;99218.94;;;-2.25;100.00
7433;BME280;32233;49.500;7.764;2023-03-04T07:58:38;99221.25;;;-1.95;100.00
7433;BME280;32233;49.500;7.764;2023-03-04T08:01:13;99227.03;;;-1.53;100.00
7433;BME280;32233;49.500;7.764;2023-03-04T08:03:40;99217.44;;;-1.27;100.00
7433;BME280;32233;49.500;7.764;2023-03-04T08:06:10;99207.22;;;-1.41;100.00
7433;BME280;32233;49.500;7.764;2023-03-04T08:08:37;99214.59;;;-1.61;100.00
7433;BME280;32233;49.500;7.764;2023-03-04T08:11:05;99216.72;;;-1.29;100.00
7433;BME280;32233;49.500;7.764;2023-03-04T08:13:33;99219.69;;;-1.10;100.00
7433;BME280;32233;49.500;7.764;2023-03-04T08:15:59;99215.94;;;-1.42;100.00
7433;BME280;32233;49.500;7.764;2023-03-04T08:18:26;99212.03;;;-1.24;100.00
7433;BME280;32233;49.500;7.764;2023-03-04T08:20:53;99210.06;;;-1.20;100.00
7433;BME280;32233;49.500;7.764;2023-03-04T08:23:19;99210.75;;;-1.06;99.88
7433;BME280;32233;49.500;7.764;2023-03-04T08:25:46;99223.81;;;-1.57;100.00
7433;BME280;32233;49.500;7.764;2023-03-04T08:28:13;99216.25;;;-1.60;100.00
7433;BME280;32233;49.500;7.764;2023-03-04T08:30:40;99212.53;;;-1.19;100.00
7433;BME280;32233;49.500;7.764;2023-03-04T08:33:07;99216.75;;;-1.42;100.00
7433;BME280;32233;49.500;7.764;2023-03-04T08:35:38;99214.25;;;-1.07;100.00
7433;BME280;32233;49.500;7.764;2023-03-04T08:38:06;99212.81;;;-1.11;100.00
7433;BME280;32233;49.500;7.764;2023-03-04T08:40:32;99208.44;;;-0.73;100.00
7433;BME280;32233;49.500;7.764;2023-03-04T08:42:59;99201.34;;;-0.47;99.52
7433;BME280;32233;49.500;7.764;2023-03-04T08:45:26;99203.59;;;-0.43;99.03
7433;BME280;32233;49.500;7.764;2023-03-04T08:47:52;99201.91;;;-0.55;99.06
7433;BME280;32233;49.500;7.764;2023-03-04T08:50:19;99202.56;;;-0.40;99.42
7433;BME280;32233;49.500;7.764;2023-03-04T08:52:47;99198.97;;;-0.51;99.81
7433;BME280;32233;49.500;7.764;2023-03-04T08:55:14;99203.22;;;-0.50;100.00
7433;BME280;32233;49.500;7.764;2023-03-04T08:57:41;99201.72;;;-0.41;100.00
7433;BME280;32233;49.500;7.764;2023-03-04T09:00:08;99206.44;;;0.12;99.40
7433;BME280;32233;49.500;7.764;2023-03-04T09:02:35;99199.94;;;0.06;98.40
7433;BME280;32233;49.500;7.764;2023-03-04T09:05:01;99207.56;;;-0.15;99.94
7433;BME280;32233;49.500;7.764;2023-03-04T09:07:28;99206.09;;;0.05;98.61
7433;BME280;32233;49.500;7.764;2023-03-04T09:09:54;99207.66;;;0.30;97.04
7433;BME280;32233;49.500;7.764;2023-03-04T09:12:21;99198.78;;;0.66;95.34
7433;BME280;32233;49.500;7.764;2023-03-04T09:14:48;99204.56;;;0.59;94.73
7433;BME280;32233;49.500;7.764;2023-03-04T09:17:33;99197.34;;;0.73;94.67
7433;BME280;32233;49.500;7.764;2023-03-04T09:20:00;99200.41;;;0.67;93.72
7433;BME280;32233;49.500;7.764;2023-03-04T09:22:29;99200.63;;;0.98;92.45
7433;BME280;32233;49.500;7.764;2023-03-04T09:24:56;99203.50;;;0.61;93.38
7433;BME280;32233;49.500;7.764;2023-03-04T09:27:22;99211.19;;;0.52;95.85
7433;BME280;32233;49.500;7.764;2023-03-04T09:29:49;99202.19;;;0.67;94.66
7433;BME280;32233;49.500;7.764;2023-03-04T09:32:15;99210.13;;;0.65;94.89
7433;BME280;32233;49.500;7.764;2023-03-04T09:34:42;99205.25;;;0.94;92.18
7433;BME280;32233;49.500;7.764;2023-03-04T09:37:09;99213.34;;;1.12;91.54
7433;BME280;32233;49.500;7.764;2023-03-04T09:39:35;99213.84;;;1.06;91.73
7433;BME280;32233;49.500;7.764;2023-03-04T09:42:03;99212.91;;;1.39;89.96
7433;BME280;32233;49.500;7.764;2023-03-04T09:44:33;99209.53;;;1.60;88.83
7433;BME280;32233;49.500;7.764;2023-03-04T09:47:05;99211.94;;;1.72;88.61
7433;BME280;32233;49.500;7.764;2023-03-04T09:49:37;99208.13;;;1.56;88.52
7433;BME280;32233;49.500;7.764;2023-03-04T09:52:20;99214.09;;;1.67;87.85
7433;BME280;32233;49.500;7.764;2023-03-04T09:54:59;99221.09;;;1.35;89.80
7433;BME280;32233;49.500;7.764;2023-03-04T10:00:18;99217.63;;;1.66;89.05
7433;BME280;32233;49.500;7.764;2023-03-04T10:06:23;99222.13;;;1.76;87.64
7433;BME280;32233;49.500;7.764;2023-03-04T10:08:37;99215.22;;;1.54;90.28
7433;BME280;32233;49.500;7.764;2023-03-04T10:11:12;99223.03;;;1.54;91.05
7433;BME280;32233;49.500;7.764;2023-03-04T10:16:37;99213.66;;;1.83;89.21
7433;BME280;32233;49.500;7.764;2023-03-04T10:19:19;99213.47;;;2.17;88.00
7433;BME280;32233;49.500;7.764;2023-03-04T10:21:49;99211.91;;;2.35;85.81
7433;BME280;32233;49.500;7.764;2023-03-04T10:24:19;99219.25;;;1.99;86.82
7433;BME280;32233;49.500;7.764;2023-03-04T10:26:51;99211.03;;;1.83;88.92
7433;BME280;32233;49.500;7.764;2023-03-04T10:29:21;99210.91;;;2.06;87.79
7433;BME280;32233;49.500;7.764;2023-03-04T10:31:49;99212.31;;;1.89;88.60
7433;BME280;32233;49.500;7.764;2023-03-04T10:34:17;99209.13;;;2.06;nan
7433;BME280;32233;49.500;7.764;2023-03-04T10:41:57;99202.06;;;2.48;85.79
7433;BME280;32233;49.500;7.764;2023-03-04T10:44:24;99212.63;;;2.47;85.39
7433;BME280;32233;49.500;7.764;2023-03-04T10:46:53;99210.38;;;2.63;84.26
7433;BME280;32233;49.500;7.764;2023-03-04T10:49:20;99206.44;;;2.79;84.16
7433;BME280;32233;49.500;7.764;2023-03-04T10:52:18;99209.22;;;2.87;83.67
7433;BME280;32233;49.500;7.764;2023-03-04T10:54:51;99208.16;;;2.59;84.78
7433;BME280;32233;49.500;7.764;2023-03-04T10:59:57;99194.25;;;3.08;84.01
7433;BME280;32233;49.500;7.764;2023-03-04T11:02:26;99196.16;;;2.46;85.48
7433;BME280;32233;49.500;7.764;2023-03-04T11:05:03;99197.72;;;2.59;86.28
7433;BME280;32233;49.500;7.764;2023-03-04T11:07:31;99197.78;;;2.78;84.81
7433;BME280;32233;49.500;7.764;2023-03-04T11:10:18;99181.47;;;3.05;81.00
7433;BME280;32233;49.500;7.764;2023-03-04T11:15:20;99185.06;;;3.23;78.76
7433;BME280;32233;49.500;7.764;2023-03-04T11:17:56;99179.44;;;3.38;76.02
7433;BME280;32233;49.500;7.764;2023-03-04T11:20:42;99175.97;;;3.66;74.30
7433;BME280;32233;49.500;7.764;2023-03-04T11:23:13;99181.22;;;3.76;73.47
7433;BME280;32233;49.500;7.764;2023-03-04T11:25:52;99166.44;;;3.94;72.50
7433;BME280;32233;49.500;7.764;2023-03-04T11:28:39;99167.41;;;3.93;72.15
7433;BME280;32233;49.500;7.764;2023-03-04T11:31:35;99161.53;;;3.72;73.91
7433;BME280;32233;49.500;7.764;2023-03-04T11:34:52;99166.59;;;3.93;71.95
7433;BME280;32233;49.500;7.764;2023-03-04T11:37:29;99154.88;;;3.87;72.53
7433;BME280;32233;49.500;7.764;2023-03-04T11:40:03;99161.91;;;3.96;73.54
7433;BME280;32233;49.500;7.764;2023-03-04T11:45:16;99156.44;;;3.80;73.61
7433;BME280;32233;49.500;7.764;2023-03-04T11:50:57;99154.13;;;3.67;73.86
7433;BME280;32233;49.500;7.764;2023-03-04T11:53:49;99152.16;;;3.69;73.09
7433;BME280;32233;49.500;7.764;2023-03-04T11:56:31;99142.28;;;3.63;73.53
7433;BME280;32233;49.500;7.764;2023-03-04T11:59:10;99136.59;;;3.78;72.98
7433;BME280;32233;49.500;7.764;2023-03-04T12:10:12;99128.38;;;3.63;74.77
7433;BME280;32233;49.500;7.764;2023-03-04T12:15:54;99124.91;;;3.82;74.24
7433;BME280;32233;49.500;7.764;2023-03-04T12:27:19;99111.97;;;3.70;74.81
7433;BME280;32233;49.500;7.764;2023-03-04T12:29:55;99108.84;;;3.57;74.51
7433;BME280;32233;49.500;7.764;2023-03-04T12:32:41;99104.03;;;3.53;74.92
7433;BME280;32233;49.500;7.764;2023-03-04T12:35:32;99111.22;;;3.31;75.84
7433;BME280;32233;49.500;7.764;2023-03-04T12:41:26;99101.19;;;3.36;75.58
7433;BME280;32233;49.500;7.764;2023-03-04T12:44:14;99095.66;;;3.49;75.73
7433;BME280;32233;49.500;7.764;2023-03-04T12:55:15;99086.13;;;3.58;74.81
7433;BME280;32233;49.500;7.764;2023-03-04T12:57:45;99095.38;;;3.42;75.45
7433;BME280;32233;49.500;7.764;2023-03-04T13:02:53;99091.66;;;3.55;75.17
7433;BME280;32233;49.500;7.764;2023-03-04T13:08:38;99091.66;;;3.55;74.93
7433;BME280;32233;49.500;7.764;2023-03-04T13:14:21;99091.94;;;3.42;75.13
7433;BME280;32233;49.500;7.764;2023-03-04T13:16:50;99081.91;;;3.47;75.83
7433;BME280;32233;49.500;7.764;2023-03-04T13:25:36;99074.88;;;3.38;75.68
7433;BME280;32233;49.500;7.764;2023-03-04T13:35:54;99074.66;;;3.31;76.66
7433;BME280;32233;49.500;7.764;2023-03-04T13:41:23;99072.16;;;3.30;76.49
7433;BME280;32233;49.500;7.764;2023-03-04T13:43:55;99069.13;;;3.44;76.31
7433;BME280;32233;49.500;7.764;2023-03-04T13:51:18;99066.09;;;3.48;76.35
7433;BME280;32233;49.500;7.764;2023-03-04T13:56:35;99061.94;;;3.46;76.49
7433;BME280;32233;49.500;7.764;2023-03-04T14:06:42;99052.22;;;3.85;74.86
7433;BME280;32233;49.500;7.764;2023-03-04T14:09:14;99056.53;;;3.67;74.87
7433;BME280;32233;49.500;7.764;2023-03-04T14:11:41;99049.09;;;3.72;75.24
7433;BME280;32233;49.500;7.764;2023-03-04T14:14:15;99059.28;;;3.65;74.93
7433;BME280;32233;49.500;7.764;2023-03-04T14:16:49;99054.00;;;3.85;73.82
7433;BME280;32233;49.500;7.764;2023-03-04T14:19:25;99050.69;;;3.92;73.94
7433;BME280;32233;49.500;7.764;2023-03-04T14:21:53;99040.97;;;4.03;72.84
7433;BME280;32233;49.500;7.764;2023-03-04T14:24:21;99041.22;;;4.09;72.12
7433;BME280;32233;49.500;7.764;2023-03-04T14:26:49;99039.81;;;3.87;73.06
7433;BME280;32233;49.500;7.764;2023-03-04T14:31:49;99031.13;;;3.87;72.72
7433;BME280;32233;49.500;7.764;2023-03-04T14:34:30;99031.34;;;4.03;72.37
7433;BME280;32233;49.500;7.764;2023-03-04T14:36:58;99025.91;;;4.14;70.90
7433;BME280;32233;49.500;7.764;2023-03-04T14:39:29;99032.78;;;4.15;70.70
7433;BME280;32233;49.500;7.764;2023-03-04T14:42:00;99028.47;;;4.24;70.92
7433;BME280;32233;49.500;7.764;2023-03-04T14:44:42;99022.66;;;4.30;70.30
7433;BME280;32233;49.500;7.764;2023-03-04T14:49:55;99006.88;;;4.40;69.13
7433;BME280;32233;49.500;7.764;2023-03-04T14:52:39;99012.47;;;4.27;70.23
7433;BME280;32233;49.500;7.764;2023-03-04T14:55:35;99009.19;;;4.25;70.96
7433;BME280;32233;49.500;7.764;2023-03-04T14:58:18;99013.63;;;4.25;70.69
7433;BME280;32233;49.500;7.764;2023-03-04T15:00:46;99000.75;;;4.31;70.15
7433;BME280;32233;49.500;7.764;2023-03-04T15:03:20;98996.56;;;4.38;69.34